Sterling, MI

7:18 AM EST on November 24, 2014 (GMT -0500)
Roscommon County | Change Station
CLOSE
Current Station
Airport
Location: Houghton Lake,
Elevation: 1152 ft
Nearby Weather Stations
Active Advisory: Winter Weather Advisory

Elev 1152 ft 44.36 °N, 84.67 °W | Updated 25 minutes ago

Rain
Rain
45 °F
Feels Like 40 °F
N
9
Wind Variable Wind from SW

Today
High -- | Low -- °F
--% Chance of Precip.
Yesterday
High -- | Low -- °F
Precip. -- in
7:42 AM 5:02 PM
Waxing Crescent, 5% visible
Pressure 28.98 in
Visibility 10.0 miles
Clouds Overcast 600 ft
Windchill 40 °F
Dew Point 44 °F
Humidity 97%
Rainfall 0.45 in
Snow Depth Not available.
UV 0 out of 12
Pollen .10 out of 12
Air Quality Not available.
Flu Activity Not available.
METAR KHTL 241153Z AUTO 23008KT 10SM -RA OVC006 07/07 A2897 RMK AO2 SLP814 P0001 60035 70107 T00720067 10083 20067 53005

More Conditions Fewer Conditions

Pressure 28.98 in
Visibility 10.0 miles
Clouds Overcast 600 ft
Windchill 40 °F
Dew Point 44 °F
Humidity 97%
Rainfall 0.45 in
Snow Depth Not available.
UV 0 out of 12
Pollen .10 out of 12
Air Quality Not available.
Flu Activity Not available.
METAR KHTL 241153Z AUTO 23008KT 10SM -RA OVC006 07/07 A2897 RMK AO2 SLP814 P0001 60035 70107 T00720067 10083 20067 53005

More Conditions Fewer Conditions

Nowcast | as of 7:00 am EST on November 24, 2014

Winter Weather Advisory in effect from 5 PM this afternoon to 5 PM EST Tuesday... At 8 am...areas of fog. Periods of rain. Temperature 47. Southwest winds 13 mph. At 10 am...areas of fog. Periods of rain. Temperature 49. Southwest winds 11 mph. At 12 PM...areas of fog. Periods of rain. Temperature 49. Southwest winds 11 mph. At 2 PM...areas of fog. Periods of rain. Temperature 48. Southwest winds 9 mph.

×

10-Day Weather Forecast

Almanac

Astronomy

Nov. 24, 2014 Rise Set
Actual Time
Civil Twilight
Nautical Twilight
Astronomical Twilight
Moon
Length of Visible Light
Length of Day
Tomorrow will be .
, % of the Moon is Illuminated

Today's Extremes

State Highs State Lows

Community

WunderPhotos

Upload Photos

1,773,319 photos uploaded!

WunderBlogs® & News

Nearby

Air Quality

  Air Quality AQ Index Pollutant
Not available.

Snow Depth

Station Depth Elevation

Earthquake Activity

City Distance Mag. Time & Date
Minimum magnitude displayed is 2.5.

Coastal Water Temperatures

Place Temperature

Nearby Weather Stations